Home   Weather   Croatia   Zagreb   Past weeks
Flag for Croatia

Past Weather in Zagreb, Croatia — October 2019

Currently: 70 °F. Passing clouds. (Weather station: Zagreb / Pleso, Croatia). See more current weather

October 2019 Weather in Zagreb — Graph

°F

High & Low Weather Summary for October 2019

 TemperatureHumidityPressure
High79 °F (Oct 1, 4:00 pm)100% (Oct 12, 4:00 am)30.33 "Hg (Oct 12, 4:00 am)
Low34 °F (Oct 8, 6:30 am)47% (Oct 12, 3:00 pm)29.62 "Hg (Oct 2, 1:30 pm)
Average56 °F81%30.06 "Hg
* Reported Oct 1 12:00 am — Oct 31 11:30 pm, Zagreb. Weather by CustomWeather, © 2021

Note: Actual official high and low records may vary slightly from our data, if they occured in-between our weather recording intervals... More about our weather records

Zagreb Weather History for October 1, 2019

Scroll right to see more
 ConditionsComfort  
Time TempWeatherWind HumidityBarometerVisibility
12:00 am
Tue, Oct 1
61 °FPassing clouds.2 mph88%29.95 "HgN/A
12:30 am61 °FPassing clouds.5 mph88%29.95 "HgN/A
1:00 am61 °FOvercast.3 mph94%29.95 "HgN/A
1:30 am63 °FPassing clouds.7 mph88%29.98 "HgN/A
2:00 am63 °FOvercast.6 mph83%29.98 "HgN/A
2:30 am63 °FOvercast.3 mph83%29.98 "HgN/A
3:00 am63 °FOvercast.5 mph77%29.98 "HgN/A
3:30 am63 °FPassing clouds.6 mph77%29.98 "HgN/A
4:00 am61 °FPassing clouds.5 mph77%29.98 "HgN/A
4:30 am61 °FOvercast.6 mph77%29.98 "HgN/A
5:00 am63 °FOvercast.5 mph68%29.98 "HgN/A
5:30 am63 °FOvercast.7 mph68%29.98 "HgN/A
6:00 am61 °FOvercast.6 mph72%29.98 "HgN/A
6:30 am61 °FPassing clouds.3 mph68%29.98 "HgN/A
7:00 am61 °FPassing clouds.5 mph72%29.98 "HgN/A
7:30 am61 °FPassing clouds.6 mph72%29.98 "HgN/A
8:00 am61 °FPassing clouds.5 mph72%29.98 "HgN/A
8:30 am63 °FPassing clouds.7 mph68%29.98 "HgN/A
9:00 am64 °FPassing clouds.5 mph68%29.98 "HgN/A
9:30 am68 °FPassing clouds.3 mph56%29.98 "HgN/A
10:00 am68 °FPassing clouds.3 mph56%29.98 "HgN/A
10:30 am70 °FSunny.3 mph53%29.98 "Hg10 mi
11:00 am72 °FSunny.2 mph53%29.95 "Hg10 mi
11:30 am72 °FSunny.3 mph53%29.95 "Hg10 mi
12:00 pm73 °FSunny.3 mph50%29.95 "Hg10 mi
12:30 pm73 °FSunny.5 mph53%29.92 "Hg10 mi
1:00 pm73 °FSunny.3 mph53%29.92 "Hg10 mi
1:30 pm75 °FSunny.3 mph54%29.89 "Hg10 mi
2:00 pm75 °FSunny.5 mph54%29.89 "Hg10 mi
2:30 pm77 °FPassing clouds.3 mph54%29.89 "HgN/A
3:00 pm77 °FSunny.5 mph54%29.86 "Hg10 mi
3:30 pm77 °FPassing clouds.5 mph54%29.86 "HgN/A
4:00 pm79 °FSunny.5 mph54%29.83 "Hg10 mi
4:30 pm77 °FSunny.7 mph57%29.83 "Hg10 mi
5:00 pm77 °FSunny.7 mph57%29.83 "Hg10 mi
5:30 pm77 °FPassing clouds.5 mph57%29.80 "HgN/A
6:00 pm75 °FPassing clouds.5 mph65%29.80 "HgN/A
6:30 pm73 °FPassing clouds.6 mph65%29.80 "HgN/A
7:00 pm70 °FPassing clouds.6 mph69%29.80 "HgN/A
7:30 pm68 °FClear.5 mph69%29.80 "Hg10 mi
8:00 pm66 °FClear.3 mph73%29.80 "Hg10 mi
8:30 pm64 °FClear.6 mph78%29.80 "Hg10 mi
9:00 pm64 °FClear.5 mph78%29.80 "Hg10 mi
9:30 pm63 °FPassing clouds.5 mph83%29.80 "HgN/A
10:00 pm63 °FClear.2 mph77%29.80 "Hg10 mi
10:30 pm63 °FPassing clouds.3 mph83%29.77 "HgN/A
11:00 pm61 °FPassing clouds.3 mph83%29.77 "HgN/A
11:30 pm59 °FClear.3 mph82%29.77 "Hg10 mi
Weather by CustomWeather, © 2021

See weather overview